createdAt,value
2023-01-09T00:01:01.475Z,6.83
2023-01-09T00:03:29.051Z,6.77
2023-01-09T00:05:56.364Z,6.74
2023-01-09T00:08:23.387Z,6.77
2023-01-09T00:10:50.871Z,6.82
2023-01-09T00:13:18.251Z,6.80
2023-01-09T00:15:45.741Z,6.76
2023-01-09T00:18:13.054Z,6.77
2023-01-09T00:20:40.530Z,6.78
2023-01-09T00:23:07.898Z,6.71
2023-01-09T00:25:35.670Z,6.79
2023-01-09T00:28:02.977Z,6.72
2023-01-09T00:30:30.189Z,6.71
2023-01-09T00:32:57.216Z,6.72
2023-01-09T00:35:26.402Z,6.74
2023-01-09T00:37:53.916Z,6.70
2023-01-09T00:40:21.212Z,6.69
2023-01-09T00:42:56.223Z,6.70
2023-01-09T00:45:28.888Z,6.71
2023-01-09T00:48:03.846Z,6.81
2023-01-09T00:50:33.160Z,6.90
2023-01-09T00:53:10.899Z,6.76
2023-01-09T00:55:39.070Z,6.87
2023-01-09T00:58:07.122Z,6.80
2023-01-09T01:00:34.258Z,6.91
2023-01-09T01:03:01.406Z,7.04
2023-01-09T01:05:47.184Z,6.93
2023-01-09T01:08:16.958Z,6.93
2023-01-09T01:10:45.160Z,7.07
2023-01-09T01:13:12.832Z,6.98
2023-01-09T01:15:42.368Z,7.04
2023-01-09T01:18:11.454Z,7.04
2023-01-09T01:20:42.236Z,6.99
2023-01-09T01:23:09.611Z,7.00
2023-01-09T01:25:41.700Z,6.91
2023-01-09T01:28:10.332Z,6.92
2023-01-09T01:30:42.124Z,6.98
2023-01-09T01:33:10.452Z,6.89
2023-01-09T01:35:37.904Z,7.02
2023-01-09T01:38:04.976Z,7.00
2023-01-09T01:40:32.511Z,7.00
2023-01-09T01:43:00.004Z,6.95
2023-01-09T01:45:29.720Z,7.06
2023-01-09T01:48:04.428Z,6.96
2023-01-09T01:50:45.402Z,6.96
2023-01-09T01:53:32.796Z,6.99
2023-01-09T01:56:08.007Z,7.04
2023-01-09T01:58:39.313Z,6.92
2023-01-09T02:01:07.258Z,6.87
2023-01-09T02:03:35.139Z,6.92
2023-01-09T02:06:04.824Z,6.97
2023-01-09T02:08:32.677Z,6.93
2023-01-09T02:11:00.114Z,6.95
2023-01-09T02:13:28.369Z,6.96
2023-01-09T02:16:17.226Z,7.08
2023-01-09T02:18:47.022Z,7.19
2023-01-09T02:21:48.900Z,7.08
2023-01-09T02:24:30.861Z,7.04
2023-01-09T02:27:17.796Z,7.14
2023-01-09T02:30:17.207Z,7.03
2023-01-09T02:33:04.960Z,6.99
2023-01-09T02:35:47.570Z,7.11
2023-01-09T02:38:34.047Z,7.04
2023-01-09T02:41:30.649Z,6.99
2023-01-09T02:44:31.145Z,6.96
2023-01-09T02:47:02.455Z,7.01
2023-01-09T02:49:30.489Z,7.05
2023-01-09T02:52:14.574Z,6.90
2023-01-09T02:55:03.300Z,6.96
2023-01-09T02:57:51.372Z,6.90
2023-01-09T03:01:01.146Z,6.82
2023-01-09T03:04:08.841Z,7.00
2023-01-09T03:07:11.758Z,6.93
2023-01-09T03:09:41.497Z,6.92
2023-01-09T03:12:18.239Z,6.95
2023-01-09T03:14:53.412Z,7.08
2023-01-09T03:17:35.117Z,6.98
2023-01-09T03:20:06.944Z,6.93
2023-01-09T03:22:33.864Z,7.07
2023-01-09T03:25:00.853Z,7.11
2023-01-09T03:27:27.951Z,7.05
2023-01-09T03:29:56.558Z,7.11
2023-01-09T03:32:23.591Z,7.03
2023-01-09T03:34:50.541Z,7.09
2023-01-09T03:37:17.488Z,7.00
2023-01-09T03:39:44.483Z,6.98
2023-01-09T03:42:11.508Z,6.97
2023-01-09T03:44:38.483Z,6.96
2023-01-09T03:47:05.420Z,6.85
2023-01-09T03:49:32.815Z,6.89
2023-01-09T03:51:59.766Z,6.92
2023-01-09T03:54:26.744Z,6.85
2023-01-09T03:56:53.753Z,6.82
2023-01-09T03:59:20.863Z,6.75
2023-01-09T04:01:47.877Z,6.74
2023-01-09T04:04:15.426Z,6.75
2023-01-09T04:06:42.463Z,6.77
2023-01-09T04:09:09.540Z,6.70
2023-01-09T04:11:36.478Z,6.73
2023-01-09T04:14:03.904Z,6.68
2023-01-09T04:16:31.330Z,6.66
2023-01-09T04:18:58.739Z,6.65
2023-01-09T04:21:26.175Z,6.40
2023-01-09T04:23:53.519Z,6.21
2023-01-09T04:26:20.931Z,6.02
2023-01-09T04:28:48.768Z,5.97
2023-01-09T04:31:16.196Z,5.88
2023-01-09T04:33:43.562Z,5.82
2023-01-09T04:36:11.257Z,5.78
2023-01-09T04:38:38.617Z,5.74
2023-01-09T04:41:06.165Z,5.74
2023-01-09T04:43:33.474Z,5.67
2023-01-09T04:46:00.855Z,5.56
2023-01-09T04:48:28.289Z,5.56
2023-01-09T04:50:55.637Z,5.54
2023-01-09T04:53:23.011Z,5.52
2023-01-09T04:55:50.340Z,5.52
2023-01-09T04:58:17.747Z,5.50
2023-01-09T05:00:45.185Z,5.48
2023-01-09T05:03:12.523Z,5.40
2023-01-09T05:05:39.846Z,5.39
2023-01-09T05:08:07.442Z,5.35
2023-01-09T05:10:34.802Z,5.33
2023-01-09T05:13:02.130Z,5.31
2023-01-09T05:15:31.028Z,5.21
2023-01-09T05:17:58.433Z,5.24
2023-01-09T05:20:25.787Z,5.24
2023-01-09T05:22:53.165Z,5.22
2023-01-09T05:25:20.579Z,5.13
2023-01-09T05:27:47.919Z,5.10
2023-01-09T05:30:17.992Z,5.18
2023-01-09T05:32:45.701Z,5.21
2023-01-09T05:35:13.090Z,5.22
2023-01-09T05:37:40.442Z,5.20
2023-01-09T05:40:08.385Z,5.21
2023-01-09T05:42:35.769Z,5.29
2023-01-09T05:45:03.309Z,5.19
2023-01-09T05:47:30.633Z,5.14
2023-01-09T05:49:57.958Z,5.12
2023-01-09T05:52:25.501Z,5.10
2023-01-09T05:54:52.866Z,5.09
2023-01-09T05:57:20.308Z,5.20
2023-01-09T05:59:47.663Z,5.13
2023-01-09T06:02:15.108Z,5.06
2023-01-09T06:04:43.863Z,5.08
2023-01-09T06:07:11.382Z,5.04
2023-01-09T06:09:39.249Z,4.92
2023-01-09T06:12:06.935Z,4.91
2023-01-09T06:14:34.378Z,4.87
2023-01-09T06:17:01.709Z,4.87
2023-01-09T06:19:28.698Z,4.90
2023-01-09T06:21:55.702Z,4.78
2023-01-09T06:24:22.708Z,4.77
2023-01-09T06:26:49.653Z,4.59
2023-01-09T06:29:16.658Z,4.58
2023-01-09T06:31:43.601Z,4.58
2023-01-09T06:34:10.656Z,4.45
2023-01-09T06:36:37.603Z,4.40
2023-01-09T06:39:04.616Z,4.32
2023-01-09T06:41:31.612Z,4.33
2023-01-09T06:43:59.049Z,4.34
2023-01-09T06:46:26.407Z,4.33
2023-01-09T06:48:53.773Z,4.24
2023-01-09T06:51:21.383Z,4.31
2023-01-09T06:53:48.707Z,4.38
2023-01-09T06:56:16.075Z,4.51
2023-01-09T06:58:43.090Z,4.65
2023-01-09T07:01:10.535Z,4.76
2023-01-09T07:03:37.615Z,4.98
2023-01-09T07:06:05.067Z,4.98
2023-01-09T07:08:33.113Z,4.96
2023-01-09T07:11:00.035Z,4.99
2023-01-09T07:13:27.488Z,5.02
2023-01-09T07:15:54.901Z,5.11
2023-01-09T07:18:22.328Z,5.19
2023-01-09T07:20:49.746Z,5.21
2023-01-09T07:23:18.795Z,5.23
2023-01-09T07:25:46.371Z,5.15
2023-01-09T07:28:13.798Z,5.07
2023-01-09T07:30:41.163Z,5.10
2023-01-09T07:33:08.544Z,5.22
2023-01-09T07:35:35.902Z,5.24
2023-01-09T07:38:03.229Z,5.28
2023-01-09T07:40:30.608Z,5.22
2023-01-09T07:42:57.940Z,5.19
2023-01-09T07:45:25.308Z,5.20
2023-01-09T07:47:52.694Z,5.28
2023-01-09T07:50:20.469Z,5.30
2023-01-09T07:52:47.858Z,5.31
2023-01-09T07:55:17.374Z,5.34
2023-01-09T07:57:50.152Z,5.41
2023-01-09T08:00:18.537Z,5.45
2023-01-09T08:02:45.490Z,5.48
2023-01-09T08:05:14.834Z,5.45
2023-01-09T08:07:42.886Z,5.52
2023-01-09T08:10:10.696Z,5.53
2023-01-09T08:12:37.803Z,5.61
2023-01-09T08:15:05.300Z,5.60
2023-01-09T08:17:32.351Z,5.59
2023-01-09T08:19:59.265Z,5.62
2023-01-09T08:22:26.274Z,5.63
2023-01-09T08:24:53.203Z,5.75
2023-01-09T08:27:20.187Z,5.93
2023-01-09T08:29:47.136Z,6.26
2023-01-09T08:32:14.496Z,6.61
2023-01-09T08:34:41.820Z,6.61
2023-01-09T08:37:09.184Z,7.04
2023-01-09T08:39:36.597Z,7.05
2023-01-09T08:42:22.278Z,6.68
2023-01-09T08:45:08.177Z,6.73
2023-01-09T08:47:35.592Z,7.02
2023-01-09T08:50:04.311Z,7.38
2023-01-09T08:52:31.785Z,7.56
2023-01-09T08:54:59.088Z,7.84
2023-01-09T08:57:26.535Z,8.00
2023-01-09T08:59:53.926Z,8.36
2023-01-09T09:02:21.008Z,8.47
2023-01-09T09:04:51.620Z,8.70
2023-01-09T09:07:26.366Z,9.06
2023-01-09T09:09:54.500Z,9.33
2023-01-09T09:12:22.595Z,9.48
2023-01-09T09:15:08.413Z,9.69
2023-01-09T09:17:35.944Z,9.85
2023-01-09T09:20:03.387Z,9.99
2023-01-09T09:22:31.040Z,9.83
2023-01-09T09:24:58.465Z,9.60
2023-01-09T09:27:25.782Z,9.56
2023-01-09T09:29:53.166Z,9.67
2023-01-09T09:32:20.475Z,9.87
2023-01-09T09:34:47.772Z,9.81
2023-01-09T09:37:15.134Z,9.55
2023-01-09T09:39:42.454Z,10.13
2023-01-09T09:42:40.141Z,10.41
2023-01-09T09:45:22.838Z,9.25
2023-01-09T09:47:53.606Z,9.02
2023-01-09T09:50:36.139Z,8.58
2023-01-09T09:53:32.419Z,8.30
2023-01-09T09:55:59.722Z,8.04
2023-01-09T09:58:42.056Z,7.67
2023-01-09T10:01:11.475Z,7.75
2023-01-09T10:03:46.206Z,7.70
2023-01-09T10:06:33.403Z,7.82
2023-01-09T10:09:06.585Z,7.71
2023-01-09T10:11:55.456Z,7.75
2023-01-09T10:14:24.771Z,7.87
2023-01-09T10:16:58.283Z,8.08
2023-01-09T10:19:36.047Z,8.13
2023-01-09T10:22:24.384Z,7.93
2023-01-09T10:25:27.574Z,7.84
2023-01-09T10:28:27.327Z,7.82
2023-01-09T10:31:15.547Z,7.94
2023-01-09T10:33:48.798Z,7.81
2023-01-09T10:36:21.875Z,7.93
2023-01-09T10:38:52.323Z,7.93
2023-01-09T10:41:38.389Z,7.80
2023-01-09T10:44:33.416Z,7.92
2023-01-09T10:47:01.345Z,7.97
2023-01-09T10:49:29.099Z,8.21
2023-01-09T10:52:11.410Z,8.05
2023-01-09T10:54:42.201Z,8.37
2023-01-09T10:57:31.667Z,8.86
2023-01-09T10:59:59.038Z,8.72
2023-01-09T11:02:32.272Z,9.02
2023-01-09T11:04:59.679Z,9.07
2023-01-09T11:07:37.922Z,9.57
2023-01-09T11:10:08.150Z,9.78
2023-01-09T11:12:36.538Z,9.75
2023-01-09T11:15:28.788Z,10.77
2023-01-09T11:18:19.721Z,11.30
2023-01-09T11:20:47.247Z,11.59
2023-01-09T11:23:34.323Z,10.70
2023-01-09T11:26:02.909Z,10.00
2023-01-09T11:28:30.609Z,9.52
2023-01-09T11:31:00.353Z,9.59
2023-01-09T11:33:36.446Z,9.52
2023-01-09T11:36:10.795Z,9.62
2023-01-09T11:38:58.296Z,9.27
2023-01-09T11:41:31.149Z,8.43
2023-01-09T11:44:00.538Z,8.68
2023-01-09T11:46:35.658Z,8.69
2023-01-09T11:49:24.139Z,8.79
2023-01-09T11:52:16.381Z,8.46
2023-01-09T11:54:54.202Z,8.49
2023-01-09T11:57:23.119Z,8.38
2023-01-09T11:59:51.182Z,8.14
2023-01-09T12:02:35.209Z,7.98
2023-01-09T12:05:17.508Z,7.86
2023-01-09T12:07:48.064Z,8.03
2023-01-09T12:10:30.799Z,8.09
2023-01-09T12:13:18.359Z,7.97
2023-01-09T12:16:03.697Z,7.81
2023-01-09T12:18:34.341Z,7.85
2023-01-09T12:21:12.170Z,7.84
2023-01-09T12:24:09.430Z,7.93
2023-01-09T12:27:08.018Z,7.81
2023-01-09T12:29:49.353Z,7.86
2023-01-09T12:32:28.565Z,7.91
2023-01-09T12:35:06.392Z,7.92
2023-01-09T12:37:46.675Z,7.87
2023-01-09T12:40:17.060Z,7.72
2023-01-09T12:43:02.074Z,7.67
2023-01-09T12:45:44.388Z,7.69
2023-01-09T12:48:40.832Z,7.84
2023-01-09T12:51:11.203Z,7.77
2023-01-09T12:54:08.301Z,7.67
2023-01-09T12:56:49.219Z,7.56
2023-01-09T12:59:41.895Z,7.42
2023-01-09T13:02:36.633Z,7.40
2023-01-09T13:05:26.631Z,7.35
2023-01-09T13:08:19.917Z,7.36
2023-01-09T13:10:57.598Z,7.11
2023-01-09T13:13:34.658Z,6.98
2023-01-09T13:16:09.679Z,6.91
2023-01-09T13:19:07.925Z,6.93
2023-01-09T13:21:35.418Z,6.99
2023-01-09T13:24:13.677Z,7.06
2023-01-09T13:26:53.826Z,7.05
2023-01-09T13:29:48.416Z,6.93
2023-01-09T13:32:30.797Z,6.86
2023-01-09T13:34:58.510Z,6.85
2023-01-09T13:37:34.643Z,6.81
2023-01-09T13:40:04.876Z,6.79
2023-01-09T13:42:46.272Z,6.77
2023-01-09T13:45:26.007Z,6.80
2023-01-09T13:48:14.411Z,6.89
2023-01-09T13:50:43.308Z,6.98
2023-01-09T13:53:19.422Z,7.01
2023-01-09T13:55:58.983Z,7.01
2023-01-09T13:58:55.973Z,6.89
2023-01-09T14:01:35.985Z,7.03
2023-01-09T14:04:21.468Z,7.19
2023-01-09T14:07:14.492Z,7.21
2023-01-09T14:09:48.766Z,7.13
2023-01-09T14:12:16.401Z,7.11
2023-01-09T14:14:45.963Z,7.05
2023-01-09T14:17:19.293Z,6.88
2023-01-09T14:19:46.749Z,6.89
2023-01-09T14:22:45.436Z,6.84
2023-01-09T14:25:25.901Z,6.62
2023-01-09T14:27:59.161Z,6.29
2023-01-09T14:30:26.443Z,5.47
2023-01-09T14:33:02.358Z,5.29
2023-01-09T14:35:46.577Z,5.13
2023-01-09T14:38:32.796Z,5.21
2023-01-09T14:41:19.116Z,5.46
2023-01-09T14:44:06.598Z,5.62
2023-01-09T14:46:38.680Z,5.69
2023-01-09T14:49:26.724Z,5.68
2023-01-09T14:51:54.550Z,5.70
2023-01-09T14:54:32.105Z,5.75
2023-01-09T14:57:01.163Z,5.59
2023-01-09T14:59:28.951Z,5.55
2023-01-09T15:01:57.740Z,5.50
2023-01-09T15:04:36.456Z,5.50
2023-01-09T15:07:04.787Z,5.37
2023-01-09T15:09:38.088Z,5.24
2023-01-09T15:12:08.564Z,5.17
2023-01-09T15:14:40.454Z,5.07
2023-01-09T15:17:34.871Z,5.01
2023-01-09T15:20:05.780Z,4.99
2023-01-09T15:22:36.205Z,4.96
2023-01-09T15:25:37.781Z,5.02
2023-01-09T15:28:32.328Z,5.10
2023-01-09T15:31:20.681Z,5.11
2023-01-09T15:33:48.731Z,5.16
2023-01-09T15:36:25.791Z,5.12
2023-01-09T15:38:53.810Z,5.15
2023-01-09T15:41:51.106Z,5.11
2023-01-09T15:44:27.266Z,5.24
2023-01-09T15:46:58.930Z,5.39
2023-01-09T15:49:26.686Z,5.33
2023-01-09T15:51:54.185Z,5.21
2023-01-09T15:54:35.255Z,5.12
2023-01-09T15:57:32.935Z,5.09
2023-01-09T16:00:32.289Z,4.98
2023-01-09T16:03:12.322Z,4.89
2023-01-09T16:06:05.532Z,4.76
2023-01-09T16:08:40.734Z,4.66
2023-01-09T16:11:10.997Z,4.61
2023-01-09T16:13:45.770Z,4.63
2023-01-09T16:16:13.675Z,4.53
2023-01-09T16:18:51.666Z,4.47
2023-01-09T16:21:22.174Z,4.34
2023-01-09T16:23:58.843Z,4.38
2023-01-09T16:26:28.907Z,4.32
2023-01-09T16:28:56.346Z,4.19
2023-01-09T16:31:29.210Z,4.27
2023-01-09T16:33:59.491Z,4.50
2023-01-09T16:36:27.580Z,4.33
2023-01-09T16:38:55.831Z,4.38
2023-01-09T16:41:42.244Z,4.52
2023-01-09T16:44:10.653Z,4.52
2023-01-09T16:46:41.536Z,4.59
2023-01-09T16:49:16.840Z,4.66
2023-01-09T16:51:44.273Z,4.98
2023-01-09T16:54:11.734Z,5.10
2023-01-09T16:56:40.677Z,5.13
2023-01-09T16:59:15.457Z,5.07
2023-01-09T17:01:43.505Z,4.76
2023-01-09T17:04:15.190Z,4.51
2023-01-09T17:06:43.067Z,4.47
2023-01-09T17:09:15.301Z,4.26
2023-01-09T17:11:43.002Z,4.13
2023-01-09T17:14:12.328Z,4.10
2023-01-09T17:16:43.186Z,4.07
2023-01-09T17:19:17.193Z,4.07
2023-01-09T17:21:44.557Z,4.12
2023-01-09T17:24:30.646Z,4.11
2023-01-09T17:27:17.024Z,4.13
2023-01-09T17:29:44.612Z,4.15
2023-01-09T17:32:16.755Z,4.18
2023-01-09T17:34:44.231Z,4.40
2023-01-09T17:37:16.906Z,4.47
2023-01-09T17:39:45.178Z,4.64
2023-01-09T17:42:12.679Z,4.81
2023-01-09T17:44:40.159Z,4.53
2023-01-09T17:47:10.418Z,4.47
2023-01-09T17:49:37.883Z,4.46
2023-01-09T17:52:05.336Z,4.35
2023-01-09T17:54:32.607Z,4.29
2023-01-09T17:57:00.898Z,4.35
2023-01-09T17:59:30.212Z,4.42
2023-01-09T18:01:57.680Z,4.45
2023-01-09T18:04:25.097Z,4.50
2023-01-09T18:06:54.472Z,4.50
2023-01-09T18:09:21.825Z,4.52
2023-01-09T18:11:49.196Z,4.54
2023-01-09T18:14:17.510Z,4.53
2023-01-09T18:16:45.417Z,4.55
2023-01-09T18:19:13.023Z,4.54
2023-01-09T18:21:40.353Z,4.58
2023-01-09T18:24:08.487Z,4.54
2023-01-09T18:26:35.760Z,4.57
2023-01-09T18:29:03.714Z,4.52
2023-01-09T18:31:31.358Z,4.51
2023-01-09T18:34:02.210Z,4.52
2023-01-09T18:36:30.191Z,4.48
2023-01-09T18:39:01.977Z,4.46
2023-01-09T18:41:30.017Z,4.56
2023-01-09T18:43:59.071Z,4.55
2023-01-09T18:46:30.776Z,4.55
2023-01-09T18:49:03.043Z,4.47
2023-01-09T18:51:31.935Z,4.44
2023-01-09T18:53:58.963Z,4.42
2023-01-09T18:56:26.322Z,4.37
2023-01-09T18:58:57.995Z,4.33
2023-01-09T19:01:29.493Z,4.32
2023-01-09T19:03:58.349Z,4.38
2023-01-09T19:06:27.472Z,4.33
2023-01-09T19:08:55.049Z,4.35
2023-01-09T19:11:22.369Z,4.36
2023-01-09T19:13:50.612Z,4.43
2023-01-09T19:16:18.575Z,4.32
2023-01-09T19:18:45.945Z,4.32
2023-01-09T19:21:20.348Z,4.31
2023-01-09T19:23:48.445Z,4.34
2023-01-09T19:26:27.958Z,4.24
2023-01-09T19:28:58.169Z,4.25
2023-01-09T19:31:28.292Z,4.25
2023-01-09T19:33:56.861Z,4.33
2023-01-09T19:36:24.223Z,4.24
2023-01-09T19:38:57.032Z,4.23
2023-01-09T19:41:24.035Z,4.22
2023-01-09T19:43:51.132Z,4.16
2023-01-09T19:46:24.121Z,4.15
2023-01-09T19:48:52.737Z,4.17
2023-01-09T19:51:21.558Z,4.16
2023-01-09T19:53:54.474Z,4.18
2023-01-09T19:56:24.431Z,4.14
2023-01-09T19:58:58.769Z,4.08
2023-01-09T20:01:36.110Z,4.12
2023-01-09T20:04:10.046Z,4.09
2023-01-09T20:06:41.696Z,4.11
2023-01-09T20:09:11.143Z,4.08
2023-01-09T20:11:44.662Z,4.11
2023-01-09T20:14:14.207Z,4.12
2023-01-09T20:16:42.549Z,4.10
2023-01-09T20:19:12.482Z,4.12
2023-01-09T20:21:39.629Z,4.05
2023-01-09T20:24:07.753Z,4.10
2023-01-09T20:26:37.043Z,4.01
2023-01-09T20:29:04.800Z,4.04
2023-01-09T20:31:32.992Z,3.99
2023-01-09T20:34:00.571Z,3.96
2023-01-09T20:36:30.273Z,4.04
2023-01-09T20:39:00.459Z,4.04
2023-01-09T20:41:29.416Z,4.04
2023-01-09T20:44:00.445Z,4.08
2023-01-09T20:46:35.323Z,4.08
2023-01-09T20:49:03.514Z,4.07
2023-01-09T20:51:31.273Z,4.11
2023-01-09T20:53:58.737Z,4.07
2023-01-09T20:56:28.036Z,4.14
2023-01-09T20:58:56.367Z,4.09
2023-01-09T21:01:24.380Z,4.11
2023-01-09T21:03:53.166Z,4.05
2023-01-09T21:06:23.088Z,4.06
2023-01-09T21:08:53.004Z,4.00
2023-01-09T21:11:21.952Z,4.08
2023-01-09T21:13:49.800Z,4.00
2023-01-09T21:16:21.444Z,4.01
2023-01-09T21:18:49.127Z,3.98
2023-01-09T21:21:24.236Z,4.03
2023-01-09T21:23:54.205Z,4.01
2023-01-09T21:26:26.034Z,4.06
2023-01-09T21:28:55.304Z,4.06
2023-01-09T21:31:28.599Z,4.02
2023-01-09T21:33:55.571Z,4.15
2023-01-09T21:36:23.154Z,4.06
2023-01-09T21:38:53.433Z,4.10
2023-01-09T21:41:40.092Z,4.17
2023-01-09T21:44:30.079Z,4.13
2023-01-09T21:46:59.785Z,4.14
2023-01-09T21:49:30.876Z,4.09
2023-01-09T21:51:57.898Z,4.05
2023-01-09T21:54:25.286Z,4.09
2023-01-09T21:56:52.999Z,3.98
2023-01-09T21:59:19.983Z,3.94
2023-01-09T22:01:49.041Z,3.96
2023-01-09T22:04:19.359Z,3.99
2023-01-09T22:06:46.410Z,4.05
2023-01-09T22:09:13.957Z,4.15
2023-01-09T22:11:43.209Z,4.12
2023-01-09T22:14:16.992Z,4.11
2023-01-09T22:16:47.512Z,4.08
2023-01-09T22:19:19.085Z,4.18
2023-01-09T22:21:46.738Z,4.18
2023-01-09T22:24:16.845Z,4.22
2023-01-09T22:26:44.719Z,4.15
2023-01-09T22:29:11.680Z,4.12
2023-01-09T22:31:40.030Z,4.07
2023-01-09T22:34:07.260Z,4.10
2023-01-09T22:36:34.299Z,4.16
2023-01-09T22:39:01.429Z,4.16
2023-01-09T22:41:32.296Z,4.06
2023-01-09T22:43:59.826Z,4.09
2023-01-09T22:46:26.841Z,4.08
2023-01-09T22:48:53.845Z,4.07
2023-01-09T22:51:21.852Z,4.11
2023-01-09T22:53:49.577Z,4.07
2023-01-09T22:56:20.447Z,4.13
2023-01-09T22:58:52.792Z,4.14
2023-01-09T23:01:20.997Z,4.07
2023-01-09T23:03:48.391Z,4.16
2023-01-09T23:06:19.352Z,4.10
2023-01-09T23:08:47.795Z,4.16
2023-01-09T23:11:40.736Z,4.16
2023-01-09T23:14:07.684Z,4.24
2023-01-09T23:16:34.806Z,4.22
2023-01-09T23:19:02.020Z,4.17
2023-01-09T23:21:29.027Z,4.20
2023-01-09T23:23:55.998Z,4.12
2023-01-09T23:26:22.942Z,4.11
2023-01-09T23:28:49.980Z,4.16
2023-01-09T23:31:16.926Z,4.21
2023-01-09T23:33:43.920Z,4.22
2023-01-09T23:36:10.891Z,4.19
2023-01-09T23:38:39.020Z,4.13
2023-01-09T23:41:07.249Z,4.17
2023-01-09T23:43:34.215Z,4.19
2023-01-09T23:46:01.605Z,4.23
2023-01-09T23:48:28.655Z,4.16
2023-01-09T23:50:55.664Z,4.18
2023-01-09T23:53:23.358Z,4.15
2023-01-09T23:55:55.170Z,4.23
2023-01-09T23:58:22.430Z,4.17
